createdAt,value
2018-06-11T00:01:39.861Z,18.00
2018-06-11T00:04:08.301Z,17.90
2018-06-11T00:06:36.743Z,17.90
2018-06-11T00:09:07.811Z,17.90
2018-06-11T00:11:36.607Z,17.90
2018-06-11T00:14:05.133Z,17.80
2018-06-11T00:16:33.939Z,17.80
2018-06-11T00:19:02.391Z,17.80
2018-06-11T00:21:30.844Z,17.80
2018-06-11T00:23:59.301Z,17.80
2018-06-11T00:26:27.750Z,17.80
2018-06-11T00:28:56.200Z,17.70
2018-06-11T00:31:24.766Z,17.70
2018-06-11T00:33:53.211Z,17.70
2018-06-11T00:36:21.663Z,17.70
2018-06-11T00:38:50.135Z,17.70
2018-06-11T00:41:18.602Z,17.80
2018-06-11T00:43:47.038Z,17.80
2018-06-11T00:46:15.521Z,17.70
2018-06-11T00:48:43.989Z,17.80
2018-06-11T00:51:12.437Z,17.70
2018-06-11T00:53:40.906Z,17.80
2018-06-11T00:56:10.163Z,17.80
2018-06-11T00:58:38.638Z,17.80
2018-06-11T01:01:07.550Z,17.80
2018-06-11T01:03:35.999Z,17.90
2018-06-11T01:06:04.489Z,17.80
2018-06-11T01:08:32.976Z,17.90
2018-06-11T01:11:01.450Z,17.80
2018-06-11T01:13:29.954Z,17.80
2018-06-11T01:15:58.484Z,17.70
2018-06-11T01:18:26.936Z,17.70
2018-06-11T01:20:55.372Z,17.60
2018-06-11T01:23:23.908Z,17.50
2018-06-11T01:25:52.355Z,17.50
2018-06-11T01:28:20.781Z,17.40
2018-06-11T01:30:49.242Z,17.40
2018-06-11T01:33:17.703Z,17.40
2018-06-11T01:35:46.145Z,17.30
2018-06-11T01:38:14.638Z,17.20
2018-06-11T01:40:43.091Z,17.20
2018-06-11T01:43:11.549Z,17.20
2018-06-11T01:45:40.031Z,17.20
2018-06-11T01:48:08.503Z,17.10
2018-06-11T01:50:36.945Z,17.00
2018-06-11T01:53:05.426Z,17.00
2018-06-11T01:55:33.882Z,16.90
2018-06-11T01:58:02.588Z,16.80
2018-06-11T02:00:31.054Z,16.80
2018-06-11T02:02:59.605Z,16.90
2018-06-11T02:05:28.136Z,16.90
2018-06-11T02:07:56.618Z,16.90
2018-06-11T02:10:25.080Z,16.90
2018-06-11T02:12:53.619Z,16.80
2018-06-11T02:15:22.199Z,16.80
2018-06-11T02:17:50.663Z,16.80
2018-06-11T02:20:19.112Z,16.80
2018-06-11T02:22:47.598Z,16.80
2018-06-11T02:25:16.028Z,16.90
2018-06-11T02:27:44.479Z,17.00
2018-06-11T02:32:41.161Z,17.00
2018-06-11T02:35:09.606Z,17.10
2018-06-11T02:37:38.073Z,17.10
2018-06-11T02:40:06.555Z,17.10
2018-06-11T02:42:35.024Z,17.00
2018-06-11T02:45:03.839Z,16.90
2018-06-11T02:47:32.312Z,16.90
2018-06-11T02:50:00.822Z,16.90
2018-06-11T02:54:58.041Z,16.80
2018-06-11T02:57:26.524Z,16.80
2018-06-11T02:59:55.032Z,16.80
2018-06-11T03:02:23.495Z,16.70
2018-06-11T03:04:51.943Z,16.60
2018-06-11T03:07:20.436Z,16.60
2018-06-11T03:09:48.878Z,16.50
2018-06-11T03:12:17.311Z,16.60
2018-06-11T03:14:45.790Z,16.60
2018-06-11T03:17:14.256Z,16.50
2018-06-11T03:19:42.707Z,16.50
2018-06-11T03:22:11.172Z,16.60
2018-06-11T03:24:39.715Z,16.50
2018-06-11T03:27:08.175Z,16.50
2018-06-11T03:29:36.641Z,16.50
2018-06-11T03:32:05.553Z,16.50
2018-06-11T03:34:34.070Z,16.40
2018-06-11T03:37:02.551Z,16.40
2018-06-11T03:39:31.014Z,16.40
2018-06-11T03:41:59.602Z,16.40
2018-06-11T03:44:28.084Z,16.40
2018-06-11T03:46:56.557Z,16.30
2018-06-11T03:49:24.999Z,16.30
2018-06-11T03:51:53.492Z,16.30
2018-06-11T03:56:50.113Z,16.20
2018-06-11T03:59:18.630Z,16.10
2018-06-11T04:01:47.217Z,16.10
2018-06-11T04:04:15.995Z,16.10
2018-06-11T04:06:44.487Z,16.10
2018-06-11T04:09:12.935Z,16.00
2018-06-11T04:11:41.381Z,16.00
2018-06-11T04:14:09.879Z,16.00
2018-06-11T04:16:38.336Z,16.00
2018-06-11T04:19:06.817Z,16.10
2018-06-11T04:21:35.415Z,16.10
2018-06-11T04:24:03.876Z,16.10
2018-06-11T04:26:32.325Z,16.10
2018-06-11T04:29:00.824Z,16.10
2018-06-11T04:31:29.289Z,16.20
2018-06-11T04:33:57.759Z,16.20
2018-06-11T04:36:26.243Z,16.20
2018-06-11T04:38:54.705Z,16.20
2018-06-11T04:41:23.149Z,16.20
2018-06-11T04:43:51.652Z,16.30
2018-06-11T04:46:20.106Z,16.30
2018-06-11T04:48:48.594Z,16.50
2018-06-11T04:51:17.201Z,16.50
2018-06-11T04:53:45.669Z,16.50
2018-06-11T04:56:14.127Z,16.60
2018-06-11T05:01:10.770Z,16.70
2018-06-11T05:03:39.248Z,16.80
2018-06-11T05:06:07.743Z,16.90
2018-06-11T05:08:36.194Z,16.80
2018-06-11T05:11:04.647Z,16.90
2018-06-11T05:13:33.108Z,16.90
2018-06-11T05:16:01.575Z,17.00
2018-06-11T05:18:30.028Z,17.20
2018-06-11T05:20:58.507Z,17.40
2018-06-11T05:23:27.052Z,17.50
2018-06-11T05:25:55.518Z,17.40
2018-06-11T05:28:24.266Z,17.30
2018-06-11T05:30:52.708Z,17.40
2018-06-11T05:33:21.166Z,17.60
2018-06-11T05:35:49.759Z,17.80
2018-06-11T05:38:18.354Z,17.90
2018-06-11T05:40:46.941Z,17.90
2018-06-11T05:43:15.443Z,17.70
2018-06-11T05:45:44.595Z,17.50
2018-06-11T05:50:41.250Z,17.90
2018-06-11T05:53:09.696Z,18.40
2018-06-11T05:55:38.167Z,18.60
2018-06-11T05:58:06.707Z,18.80
2018-06-11T06:00:35.177Z,19.00
2018-06-11T06:03:03.679Z,19.40
2018-06-11T06:05:32.162Z,19.60
2018-06-11T06:08:00.606Z,19.80
2018-06-11T06:10:29.076Z,19.90
2018-06-11T06:12:57.562Z,19.10
2018-06-11T06:15:26.027Z,19.10
2018-06-11T06:17:54.493Z,18.80
2018-06-11T06:20:22.990Z,18.50
2018-06-11T06:22:51.544Z,18.60
2018-06-11T06:25:19.995Z,18.80
2018-06-11T06:27:48.488Z,19.30
2018-06-11T06:30:16.982Z,19.60
2018-06-11T06:32:45.466Z,19.40
2018-06-11T06:35:13.945Z,19.60
2018-06-11T06:37:42.537Z,19.80
2018-06-11T06:40:11.076Z,19.50
2018-06-11T06:45:07.826Z,20.30
2018-06-11T06:47:36.292Z,20.70
2018-06-11T06:50:04.772Z,20.60
2018-06-11T06:52:33.231Z,20.30
2018-06-11T06:55:01.700Z,20.40
2018-06-11T06:57:30.210Z,21.00
2018-06-11T06:59:58.663Z,20.50
2018-06-11T07:02:27.123Z,20.50
2018-06-11T07:04:55.621Z,20.80
2018-06-11T07:07:24.100Z,21.10
2018-06-11T07:09:52.584Z,21.50
2018-06-11T07:12:21.058Z,21.80
2018-06-11T07:14:49.562Z,21.00
2018-06-11T07:17:18.019Z,20.40
2018-06-11T07:19:46.526Z,20.70
2018-06-11T07:22:15.057Z,20.70
2018-06-11T07:24:43.517Z,20.70
2018-06-11T07:27:12.109Z,20.50
2018-06-11T07:29:40.533Z,20.10
2018-06-11T07:32:09.005Z,20.10
2018-06-11T07:34:37.479Z,20.20
2018-06-11T07:37:06.118Z,20.10
2018-06-11T07:39:34.567Z,20.80
2018-06-11T07:42:03.061Z,20.80
2018-06-11T07:44:31.529Z,21.00
2018-06-11T07:47:00.041Z,20.60
2018-06-11T07:49:28.619Z,20.80
2018-06-11T07:51:57.080Z,21.40
2018-06-11T07:54:25.519Z,21.50
2018-06-11T07:56:54.000Z,21.80
2018-06-11T07:59:22.459Z,22.90
2018-06-11T08:01:50.911Z,22.90
2018-06-11T08:04:19.405Z,22.60
2018-06-11T08:06:47.848Z,22.80
2018-06-11T08:11:44.464Z,23.20
2018-06-11T08:14:12.919Z,23.20
2018-06-11T08:16:41.374Z,23.80
2018-06-11T08:19:09.841Z,24.40
2018-06-11T08:24:06.640Z,24.20
2018-06-11T08:26:35.132Z,23.20
2018-06-11T08:29:03.686Z,22.30
2018-06-11T08:31:32.166Z,21.80
2018-06-11T08:36:28.823Z,22.00
2018-06-11T08:38:57.383Z,22.80
2018-06-11T08:41:25.911Z,23.10
2018-06-11T08:43:54.398Z,23.70
2018-06-11T08:46:22.989Z,23.80
2018-06-11T08:48:51.480Z,24.30
2018-06-11T08:51:19.932Z,24.80
2018-06-11T08:53:48.385Z,24.70
2018-06-11T08:56:16.864Z,25.10
2018-06-11T08:58:45.407Z,25.20
2018-06-11T09:01:13.856Z,25.90
2018-06-11T09:03:42.358Z,25.30
2018-06-11T09:06:10.792Z,24.50
2018-06-11T09:08:39.246Z,23.90
2018-06-11T09:11:07.718Z,24.10
2018-06-11T09:13:37.697Z,24.60
2018-06-11T09:16:06.260Z,24.30
2018-06-11T09:18:34.759Z,24.60
2018-06-11T09:21:03.272Z,24.80
2018-06-11T09:23:31.788Z,24.80
2018-06-11T09:26:00.401Z,24.50
2018-06-11T09:28:28.857Z,24.70
2018-06-11T09:30:57.469Z,25.00
2018-06-11T09:33:25.960Z,24.60
2018-06-11T09:35:54.425Z,24.30
2018-06-11T09:38:22.883Z,24.80
2018-06-11T09:40:51.361Z,24.40
2018-06-11T09:43:19.824Z,24.90
2018-06-11T09:45:48.352Z,25.30
2018-06-11T09:48:16.844Z,24.80
2018-06-11T09:50:45.340Z,25.20
2018-06-11T09:53:13.796Z,25.10
2018-06-11T09:55:42.274Z,24.60
2018-06-11T09:58:10.733Z,23.80
2018-06-11T10:00:39.200Z,23.50
2018-06-11T10:03:07.784Z,23.50
2018-06-11T10:05:36.248Z,23.70
2018-06-11T10:08:04.716Z,23.70
2018-06-11T10:10:33.211Z,24.00
2018-06-11T10:13:01.798Z,23.70
2018-06-11T10:15:30.267Z,24.00
2018-06-11T10:17:58.777Z,24.90
2018-06-11T10:20:27.229Z,25.40
2018-06-11T10:22:55.663Z,25.20
2018-06-11T10:25:24.682Z,25.70
2018-06-11T10:27:53.216Z,25.80
2018-06-11T10:30:21.661Z,25.70
2018-06-11T10:32:50.165Z,25.80
2018-06-11T10:35:18.612Z,26.10
2018-06-11T10:37:47.251Z,26.60
2018-06-11T10:40:15.730Z,26.40
2018-06-11T10:42:44.347Z,26.50
2018-06-11T10:45:13.686Z,26.70
2018-06-11T10:47:42.162Z,25.90
2018-06-11T10:50:10.611Z,25.60
2018-06-11T10:52:40.034Z,25.80
2018-06-11T10:55:08.511Z,25.60
2018-06-11T10:57:36.969Z,26.50
2018-06-11T11:00:05.478Z,28.10
2018-06-11T11:02:33.953Z,27.70
2018-06-11T11:05:02.511Z,27.40
2018-06-11T11:07:30.998Z,28.20
2018-06-11T11:09:59.582Z,28.20
2018-06-11T11:12:28.122Z,27.50
2018-06-11T11:14:56.558Z,27.80
2018-06-11T11:17:25.052Z,29.20
2018-06-11T11:19:53.512Z,29.10
2018-06-11T11:22:22.009Z,28.30
2018-06-11T11:24:50.477Z,28.50
2018-06-11T11:27:18.934Z,27.80
2018-06-11T11:29:47.453Z,27.40
2018-06-11T11:32:15.903Z,27.70
2018-06-11T11:34:44.433Z,28.20
2018-06-11T11:37:12.889Z,27.30
2018-06-11T11:39:41.357Z,28.20
2018-06-11T11:42:09.829Z,27.00
2018-06-11T11:44:38.305Z,26.30
2018-06-11T11:47:06.774Z,26.30
2018-06-11T11:49:35.223Z,27.10
2018-06-11T11:52:03.804Z,27.10
2018-06-11T11:54:32.265Z,26.90
2018-06-11T11:57:00.711Z,27.10
2018-06-11T11:59:29.193Z,26.90
2018-06-11T12:01:57.731Z,27.10
2018-06-11T12:06:54.356Z,29.40
2018-06-11T12:09:22.859Z,27.90
2018-06-11T12:11:51.305Z,27.10
2018-06-11T12:14:19.757Z,26.80
2018-06-11T12:16:48.212Z,26.30
2018-06-11T12:19:16.654Z,26.10
2018-06-11T12:21:45.098Z,26.60
2018-06-11T12:24:13.608Z,26.90
2018-06-11T12:26:42.087Z,27.50
2018-06-11T12:29:10.556Z,27.40
2018-06-11T12:31:39.146Z,27.20
2018-06-11T12:34:07.585Z,26.70
2018-06-11T12:36:36.023Z,28.10
2018-06-11T12:39:06.600Z,28.80
2018-06-11T12:44:03.878Z,27.80
2018-06-11T12:46:32.378Z,27.50
2018-06-11T12:49:00.824Z,27.10
2018-06-11T12:51:29.301Z,27.80
2018-06-11T12:53:57.859Z,28.40
2018-06-11T12:56:26.296Z,29.60
2018-06-11T12:58:54.787Z,29.90
2018-06-11T13:01:23.263Z,29.10
2018-06-11T13:03:51.712Z,27.90
2018-06-11T13:06:20.157Z,27.50
2018-06-11T13:08:48.634Z,27.30
2018-06-11T13:11:17.098Z,27.30
2018-06-11T13:13:45.555Z,28.70
2018-06-11T13:16:14.024Z,29.20
2018-06-11T13:18:42.592Z,29.20
2018-06-11T13:21:11.039Z,29.30
2018-06-11T13:23:39.499Z,29.60
2018-06-11T13:26:08.100Z,30.30
2018-06-11T13:28:36.539Z,30.20
2018-06-11T13:31:05.040Z,29.70
2018-06-11T13:33:33.533Z,30.10
2018-06-11T13:36:01.992Z,29.80
2018-06-11T13:38:30.451Z,28.40
2018-06-11T13:40:58.891Z,27.80
2018-06-11T13:43:27.353Z,27.60
2018-06-11T13:45:55.949Z,27.10
2018-06-11T13:48:24.387Z,26.80
2018-06-11T13:50:52.918Z,26.90
2018-06-11T13:53:21.389Z,26.80
2018-06-11T13:55:49.827Z,26.10
2018-06-11T13:58:18.274Z,25.50
2018-06-11T14:00:46.743Z,25.30
2018-06-11T14:03:15.180Z,25.20
2018-06-11T14:05:43.692Z,25.50
2018-06-11T14:08:12.302Z,24.80
2018-06-11T14:10:40.750Z,24.80
2018-06-11T14:13:09.195Z,24.80
2018-06-11T14:15:37.663Z,24.50
2018-06-11T14:18:06.249Z,24.50
2018-06-11T14:20:34.770Z,24.70
2018-06-11T14:23:03.263Z,24.40
2018-06-11T14:25:31.829Z,24.10
2018-06-11T14:28:00.380Z,24.10
2018-06-11T14:30:28.938Z,24.00
2018-06-11T14:32:57.381Z,23.90
2018-06-11T14:35:25.868Z,23.70
2018-06-11T14:37:54.383Z,23.50
2018-06-11T14:40:22.966Z,23.50
2018-06-11T14:42:51.422Z,23.60
2018-06-11T14:45:20.013Z,23.70
2018-06-11T14:47:48.521Z,23.60
2018-06-11T14:50:16.978Z,23.60
2018-06-11T14:52:45.447Z,23.50
2018-06-11T14:55:13.908Z,23.40
2018-06-11T14:57:42.401Z,23.30
2018-06-11T15:00:10.878Z,23.20
2018-06-11T15:05:07.563Z,23.20
2018-06-11T15:07:36.078Z,23.00
2018-06-11T15:10:04.535Z,23.00
2018-06-11T15:12:33.013Z,23.10
2018-06-11T15:15:01.486Z,23.00
2018-06-11T15:17:29.935Z,22.90
2018-06-11T15:19:58.382Z,23.00
2018-06-11T15:22:26.846Z,23.00
2018-06-11T15:24:55.314Z,22.90
2018-06-11T15:27:23.767Z,22.90
2018-06-11T15:29:52.439Z,22.90
2018-06-11T15:32:20.907Z,22.90
2018-06-11T15:34:49.374Z,22.90
2018-06-11T15:37:17.879Z,22.70
2018-06-11T15:39:46.624Z,22.70
2018-06-11T15:42:15.085Z,22.60
2018-06-11T15:44:43.686Z,22.60
2018-06-11T15:47:12.124Z,22.60
2018-06-11T15:49:40.568Z,22.50
2018-06-11T15:52:09.762Z,22.60
2018-06-11T15:54:38.207Z,22.50
2018-06-11T15:57:06.675Z,22.50
2018-06-11T15:59:35.161Z,22.50
2018-06-11T16:02:03.658Z,22.40
2018-06-11T16:04:32.172Z,22.30
2018-06-11T16:07:00.632Z,22.30
2018-06-11T16:09:29.077Z,22.20
2018-06-11T16:11:57.574Z,22.10
2018-06-11T16:14:26.104Z,22.10
2018-06-11T16:16:54.719Z,22.10
2018-06-11T16:19:23.155Z,21.90
2018-06-11T16:21:51.652Z,21.90
2018-06-11T16:24:20.097Z,21.80
2018-06-11T16:26:48.579Z,21.80
2018-06-11T16:29:17.101Z,21.80
2018-06-11T16:31:45.591Z,21.80
2018-06-11T16:34:14.063Z,21.70
2018-06-11T16:36:42.597Z,21.70
2018-06-11T16:39:11.053Z,21.60
2018-06-11T16:41:39.519Z,21.60
2018-06-11T16:44:08.099Z,21.50
2018-06-11T16:46:36.652Z,21.40
2018-06-11T16:49:05.185Z,21.30
2018-06-11T16:51:33.657Z,21.20
2018-06-11T16:54:02.137Z,21.10
2018-06-11T16:56:30.598Z,21.10
2018-06-11T16:58:59.081Z,21.00
2018-06-11T17:01:27.520Z,20.90
2018-06-11T17:03:56.129Z,20.80
2018-06-11T17:06:24.658Z,20.70
2018-06-11T17:08:53.111Z,20.70
2018-06-11T17:11:21.599Z,20.60
2018-06-11T17:13:50.189Z,20.60
2018-06-11T17:16:20.287Z,20.50
2018-06-11T17:18:48.825Z,20.40
2018-06-11T17:21:17.365Z,20.30
2018-06-11T17:23:46.513Z,20.30
2018-06-11T17:26:14.956Z,20.30
2018-06-11T17:28:43.468Z,20.30
2018-06-11T17:31:11.934Z,20.30
2018-06-11T17:33:40.477Z,20.30
2018-06-11T17:36:08.952Z,20.30
2018-06-11T17:38:37.464Z,20.40
2018-06-11T17:41:07.049Z,20.40
2018-06-11T17:43:35.582Z,20.40
2018-06-11T17:46:04.414Z,20.50
2018-06-11T17:48:32.886Z,20.60
2018-06-11T17:51:01.388Z,20.60
2018-06-11T17:53:29.851Z,20.60
2018-06-11T17:58:26.680Z,20.70
2018-06-11T18:00:55.293Z,20.70
2018-06-11T18:03:23.812Z,20.70
2018-06-11T18:05:52.274Z,20.70
2018-06-11T18:08:20.748Z,20.70
2018-06-11T18:10:49.212Z,20.70
2018-06-11T18:13:17.691Z,20.60
2018-06-11T18:15:46.136Z,20.60
2018-06-11T18:18:14.610Z,20.60
2018-06-11T18:20:43.214Z,20.60
2018-06-11T18:23:11.768Z,20.50
2018-06-11T18:25:40.252Z,20.50
2018-06-11T18:28:08.744Z,20.50
2018-06-11T18:30:37.181Z,20.50
2018-06-11T18:33:05.652Z,20.40
2018-06-11T18:35:34.218Z,20.40
2018-06-11T18:38:02.967Z,20.40
2018-06-11T18:40:31.429Z,20.30
2018-06-11T18:42:59.926Z,20.30
2018-06-11T18:45:28.393Z,20.30
2018-06-11T18:47:56.859Z,20.20
2018-06-11T18:50:25.446Z,20.20
2018-06-11T18:52:53.915Z,20.20
2018-06-11T18:55:22.456Z,20.20
2018-06-11T18:57:50.944Z,20.30
2018-06-11T19:00:19.533Z,20.30
2018-06-11T19:02:48.021Z,20.40
2018-06-11T19:05:16.548Z,20.40
2018-06-11T19:07:45.017Z,20.40
2018-06-11T19:10:13.528Z,20.50
2018-06-11T19:12:42.023Z,20.50
2018-06-11T19:15:10.529Z,20.40
2018-06-11T19:17:38.995Z,20.40
2018-06-11T19:20:07.529Z,20.40
2018-06-11T19:22:35.991Z,20.50
2018-06-11T19:25:04.517Z,20.50
2018-06-11T19:27:33.125Z,20.50
2018-06-11T19:30:01.577Z,20.50
2018-06-11T19:32:30.021Z,20.40
2018-06-11T19:34:58.514Z,20.40
2018-06-11T19:37:27.095Z,20.40
2018-06-11T19:39:55.581Z,20.40
2018-06-11T19:42:24.064Z,20.40
2018-06-11T19:44:52.538Z,20.30
2018-06-11T19:47:20.985Z,20.30
2018-06-11T19:49:49.480Z,20.20
2018-06-11T19:52:18.018Z,20.20
2018-06-11T19:54:46.511Z,20.20
2018-06-11T19:57:15.016Z,20.20
2018-06-11T19:59:43.483Z,20.20
2018-06-11T20:02:11.949Z,20.30
2018-06-11T20:04:40.431Z,20.20
2018-06-11T20:07:08.911Z,20.10
2018-06-11T20:09:37.391Z,20.10
2018-06-11T20:14:34.407Z,20.10
2018-06-11T20:17:02.857Z,20.10
2018-06-11T20:19:31.357Z,20.10
2018-06-11T20:21:59.874Z,20.00
2018-06-11T20:24:29.293Z,20.10
2018-06-11T20:26:57.809Z,20.00
2018-06-11T20:29:26.271Z,20.00
2018-06-11T20:31:55.306Z,20.00
2018-06-11T20:34:23.768Z,19.90
2018-06-11T20:36:52.914Z,19.90
2018-06-11T20:39:21.387Z,20.00
2018-06-11T20:41:49.904Z,20.00
2018-06-11T20:44:18.357Z,19.90
2018-06-11T20:46:46.879Z,20.00
2018-06-11T20:49:15.356Z,19.90
2018-06-11T20:51:43.859Z,19.90
2018-06-11T20:54:12.321Z,19.90
2018-06-11T20:56:40.847Z,19.90
2018-06-11T20:59:09.291Z,19.90
2018-06-11T21:01:37.775Z,19.90
2018-06-11T21:04:06.542Z,20.00
2018-06-11T21:06:35.008Z,19.90
2018-06-11T21:09:04.055Z,19.90
2018-06-11T21:11:32.528Z,20.00
2018-06-11T21:14:01.096Z,19.90
2018-06-11T21:16:29.624Z,19.90
2018-06-11T21:18:58.165Z,19.80
2018-06-11T21:21:26.690Z,19.80
2018-06-11T21:23:55.258Z,19.80
2018-06-11T21:26:23.746Z,19.80
2018-06-11T21:28:52.231Z,19.80
2018-06-11T21:31:20.679Z,19.70
2018-06-11T21:33:49.164Z,19.80
2018-06-11T21:36:17.606Z,19.70
2018-06-11T21:38:46.067Z,19.70
2018-06-11T21:41:14.572Z,19.70
2018-06-11T21:43:43.137Z,19.70
2018-06-11T21:46:11.580Z,19.70
2018-06-11T21:48:40.080Z,19.60
2018-06-11T21:51:08.551Z,19.50
2018-06-11T21:53:37.003Z,19.60
2018-06-11T21:56:05.629Z,19.70
2018-06-11T21:58:34.103Z,19.80
2018-06-11T22:01:02.582Z,19.70
2018-06-11T22:03:31.132Z,19.70
2018-06-11T22:05:59.595Z,19.80
2018-06-11T22:08:28.115Z,19.70
2018-06-11T22:10:56.653Z,19.70
2018-06-11T22:13:25.090Z,19.70
2018-06-11T22:15:53.555Z,19.70
2018-06-11T22:18:22.021Z,19.70
2018-06-11T22:20:50.474Z,19.60
2018-06-11T22:23:18.933Z,19.60
2018-06-11T22:25:47.404Z,19.60
2018-06-11T22:28:15.857Z,19.60
2018-06-11T22:30:44.311Z,19.50
2018-06-11T22:33:12.814Z,19.50
2018-06-11T22:35:41.330Z,19.50
2018-06-11T22:38:09.772Z,19.40
2018-06-11T22:40:38.227Z,19.50
2018-06-11T22:43:06.673Z,19.50
2018-06-11T22:45:35.261Z,19.40
2018-06-11T22:48:03.760Z,19.40
2018-06-11T22:50:32.185Z,19.40
2018-06-11T22:53:00.618Z,19.30
2018-06-11T22:55:29.089Z,19.30
2018-06-11T22:57:57.630Z,19.30
2018-06-11T23:00:33.960Z,19.30
2018-06-11T23:03:02.807Z,19.30
2018-06-11T23:05:31.314Z,19.30
2018-06-11T23:07:59.771Z,19.20
2018-06-11T23:10:28.521Z,19.20
2018-06-11T23:12:56.963Z,19.20
2018-06-11T23:15:25.447Z,19.20
2018-06-11T23:17:53.906Z,19.20
2018-06-11T23:20:22.376Z,19.10
2018-06-11T23:22:50.850Z,19.10
2018-06-11T23:25:19.293Z,19.10
2018-06-11T23:27:47.752Z,19.00
2018-06-11T23:30:16.259Z,19.00
2018-06-11T23:32:44.693Z,19.00
2018-06-11T23:35:13.148Z,18.90
2018-06-11T23:37:41.604Z,19.00
2018-06-11T23:40:10.050Z,19.00
2018-06-11T23:42:38.493Z,19.00
2018-06-11T23:45:06.961Z,18.80
2018-06-11T23:47:35.470Z,18.90
2018-06-11T23:50:07.332Z,18.90
2018-06-11T23:52:35.899Z,18.80
2018-06-11T23:55:04.407Z,18.80
2018-06-11T23:57:32.970Z,18.70
